Terminal Aerodrome Forecast
Issued by NWS Austin/San Antonio, TX

Home | Current Version | Previous Version | Text Only | Print | Product List | Glossary On
Versions: 1 2 3 4 5 6 7 8 9 10 11 12 13 14 15 16
000
FTUS44 KEWX 211700
TAFSAT
TAF
KSAT 211725Z 2118/2224 09007KT P6SM FEW200
     FM220300 VRB04KT P6SM FEW025 BKN200
     FM221800 10008KT P6SM FEW040 BKN150=

USA.gov is the U.S. government's official web portal to all federal, state and local government web resources and services.